createdAt,value
2022-09-23T00:02:11.976Z,5.30
2022-09-23T00:05:15.477Z,6.15
2022-09-23T00:08:17.841Z,5.37
2022-09-23T00:11:23.800Z,5.45
2022-09-23T00:14:26.498Z,5.10
2022-09-23T00:17:29.054Z,5.65
2022-09-23T00:20:33.601Z,5.87
2022-09-23T00:23:36.789Z,5.18
2022-09-23T00:26:38.893Z,5.43
2022-09-23T00:29:41.376Z,5.80
2022-09-23T00:32:43.510Z,5.32
2022-09-23T00:35:46.101Z,4.78
2022-09-23T00:38:48.286Z,4.82
2022-09-23T00:41:51.215Z,4.72
2022-09-23T00:44:57.028Z,4.55
2022-09-23T00:48:02.769Z,5.43
2022-09-23T00:51:09.230Z,5.15
2022-09-23T00:54:11.750Z,5.18
2022-09-23T00:57:17.497Z,4.70
2022-09-23T01:00:20.632Z,4.95
2022-09-23T01:03:22.966Z,4.80
2022-09-23T01:06:26.266Z,4.70
2022-09-23T01:09:28.802Z,4.28
2022-09-23T01:12:52.594Z,4.40
2022-09-23T01:16:25.275Z,4.72
2022-09-23T01:20:00.497Z,4.43
2022-09-23T01:23:05.497Z,4.18
2022-09-23T01:26:29.672Z,4.05
2022-09-23T01:29:58.613Z,4.75
2022-09-23T01:33:08.825Z,4.20
2022-09-23T01:36:36.147Z,3.70
2022-09-23T01:40:07.065Z,3.97
2022-09-23T01:43:22.107Z,3.75
2022-09-23T01:46:31.965Z,3.62
2022-09-23T01:49:43.717Z,4.12
2022-09-23T01:52:48.125Z,4.28
2022-09-23T01:55:57.848Z,4.20
2022-09-23T01:59:10.972Z,3.80
2022-09-23T02:02:18.674Z,3.87
2022-09-23T02:05:37.605Z,4.25
2022-09-23T02:09:01.017Z,4.55
2022-09-23T02:12:08.479Z,4.03
2022-09-23T02:15:15.720Z,4.40
2022-09-23T02:18:33.207Z,4.53
2022-09-23T02:21:40.102Z,4.20
2022-09-23T02:24:42.746Z,3.97
2022-09-23T02:28:01.434Z,3.67
2022-09-23T02:31:12.080Z,4.25
2022-09-23T02:34:33.006Z,5.62
2022-09-23T02:38:06.319Z,4.15
2022-09-23T02:41:16.757Z,3.97
2022-09-23T02:44:20.413Z,4.12
2022-09-23T02:47:27.633Z,3.65
2022-09-23T02:50:31.036Z,3.90
2022-09-23T02:53:34.658Z,3.72
2022-09-23T02:56:37.475Z,4.45
2022-09-23T02:59:40.964Z,4.55
2022-09-23T03:03:11.245Z,4.55
2022-09-23T03:06:28.644Z,4.10
2022-09-23T03:09:42.583Z,4.72
2022-09-23T03:13:15.268Z,4.00
2022-09-23T03:16:48.025Z,3.65
2022-09-23T03:20:15.350Z,4.25
2022-09-23T03:23:34.556Z,3.90
2022-09-23T03:26:39.774Z,3.67
2022-09-23T03:29:47.370Z,4.35
2022-09-23T03:32:51.343Z,3.92
2022-09-23T03:36:26.450Z,4.12
2022-09-23T03:39:31.825Z,3.97
2022-09-23T03:42:35.809Z,4.53
2022-09-23T03:45:37.987Z,3.72
2022-09-23T03:48:40.736Z,3.62
2022-09-23T03:51:44.791Z,3.80
2022-09-23T03:54:48.090Z,4.03
2022-09-23T03:57:50.260Z,4.87
2022-09-23T04:00:54.748Z,4.05
2022-09-23T04:03:58.359Z,4.40
2022-09-23T04:07:00.635Z,4.10
2022-09-23T04:10:05.184Z,4.30
2022-09-23T04:13:07.301Z,4.22
2022-09-23T04:16:09.841Z,4.75
2022-09-23T04:19:12.673Z,4.62
2022-09-23T04:22:15.627Z,4.70
2022-09-23T04:25:17.736Z,4.07
2022-09-23T04:28:21.197Z,4.50
2022-09-23T04:31:23.898Z,4.50
2022-09-23T04:34:26.665Z,4.25
2022-09-23T04:37:29.457Z,4.05
2022-09-23T04:40:32.589Z,4.07
2022-09-23T04:43:34.730Z,4.35
2022-09-23T04:46:39.491Z,3.95
2022-09-23T04:49:41.797Z,4.37
2022-09-23T04:52:44.503Z,4.65
2022-09-23T04:55:46.702Z,4.95
2022-09-23T04:58:50.593Z,4.55
2022-09-23T05:01:54.567Z,6.03
2022-09-23T05:04:57.494Z,4.90
2022-09-23T05:08:00.471Z,5.12
2022-09-23T05:11:08.950Z,5.57
2022-09-23T05:14:11.389Z,5.40
2022-09-23T05:17:14.715Z,4.62
2022-09-23T05:20:17.821Z,6.85
2022-09-23T05:23:20.213Z,5.40
2022-09-23T05:26:25.363Z,6.28
2022-09-23T05:29:29.030Z,5.62
2022-09-23T05:32:31.707Z,5.25
2022-09-23T05:35:34.112Z,5.50
2022-09-23T05:38:36.650Z,5.43
2022-09-23T05:41:40.288Z,5.07
2022-09-23T05:44:42.710Z,5.72
2022-09-23T05:47:45.211Z,6.07
2022-09-23T05:50:53.704Z,6.12
2022-09-23T05:53:58.255Z,6.62
2022-09-23T05:57:04.345Z,5.57
2022-09-23T06:00:08.811Z,5.55
2022-09-23T06:03:15.137Z,6.32
2022-09-23T06:06:20.618Z,6.03
2022-09-23T06:09:23.071Z,5.32
2022-09-23T06:12:25.673Z,5.40
2022-09-23T06:15:27.840Z,7.03
2022-09-23T06:18:30.376Z,6.40
2022-09-23T06:21:34.630Z,5.75
2022-09-23T06:24:37.673Z,5.97
2022-09-23T06:27:39.859Z,5.70
2022-09-23T06:30:42.763Z,5.70
2022-09-23T06:33:46.021Z,4.97
2022-09-23T06:36:48.428Z,4.90
2022-09-23T06:39:50.575Z,5.80
2022-09-23T06:43:00.304Z,5.07
2022-09-23T06:46:04.487Z,5.00
2022-09-23T06:49:07.278Z,4.90
2022-09-23T06:52:09.670Z,4.75
2022-09-23T06:55:12.033Z,5.85
2022-09-23T06:58:14.144Z,5.20
2022-09-23T07:01:17.507Z,5.60
2022-09-23T07:04:19.745Z,5.32
2022-09-23T07:07:22.257Z,5.25
2022-09-23T07:10:24.684Z,5.12
2022-09-23T07:13:31.740Z,5.53
2022-09-23T07:16:34.018Z,4.85
2022-09-23T07:19:36.614Z,5.20
2022-09-23T07:22:39.164Z,4.78
2022-09-23T07:25:43.160Z,4.93
2022-09-23T07:28:45.746Z,5.35
2022-09-23T07:31:49.767Z,4.68
2022-09-23T07:34:53.250Z,10.02
2022-09-23T07:37:55.852Z,3.92
2022-09-23T07:41:08.881Z,4.50
2022-09-23T07:44:11.974Z,3.83
2022-09-23T07:47:14.575Z,3.53
2022-09-23T07:50:19.328Z,4.07
2022-09-23T07:53:21.522Z,8.20
2022-09-23T07:56:29.667Z,4.15
2022-09-23T07:59:32.125Z,5.28
2022-09-23T08:02:34.798Z,3.80
2022-09-23T08:05:38.987Z,4.28
2022-09-23T08:08:44.580Z,4.12
2022-09-23T08:11:48.123Z,3.45
2022-09-23T08:14:50.382Z,3.90
2022-09-23T08:17:52.893Z,3.53
2022-09-23T08:20:54.977Z,3.85
2022-09-23T08:23:57.559Z,4.10
2022-09-23T08:26:59.697Z,4.30
2022-09-23T08:30:02.443Z,4.43
2022-09-23T08:33:04.775Z,4.37
2022-09-23T08:36:07.634Z,4.37
2022-09-23T08:39:13.247Z,4.97
2022-09-23T08:42:27.848Z,4.15
2022-09-23T08:45:30.135Z,5.20
2022-09-23T08:48:36.814Z,5.25
2022-09-23T08:51:46.209Z,5.37
2022-09-23T08:54:53.146Z,5.55
2022-09-23T09:01:52.376Z,5.87
2022-09-23T09:04:59.733Z,5.25
2022-09-23T09:08:03.796Z,5.63
2022-09-23T09:11:06.928Z,5.45
2022-09-23T09:14:18.043Z,5.60
2022-09-23T09:17:35.093Z,6.32
2022-09-23T09:20:59.260Z,5.53
2022-09-23T09:24:07.553Z,5.05
2022-09-23T09:27:13.646Z,5.03
2022-09-23T09:30:17.477Z,5.03
2022-09-23T09:33:27.550Z,5.07
2022-09-23T09:36:44.350Z,5.07
2022-09-23T09:39:46.700Z,4.37
2022-09-23T09:42:50.383Z,4.18
2022-09-23T09:46:08.411Z,5.22
2022-09-23T09:49:23.333Z,4.15
2022-09-23T09:52:29.550Z,4.12
2022-09-23T09:55:31.778Z,4.45
2022-09-23T09:58:55.612Z,4.47
2022-09-23T10:02:19.582Z,4.00
2022-09-23T10:05:30.306Z,3.40
2022-09-23T10:08:35.371Z,4.40
2022-09-23T10:11:39.189Z,4.35
2022-09-23T10:14:43.121Z,4.82
2022-09-23T10:17:50.312Z,5.20
2022-09-23T10:20:52.974Z,5.32
2022-09-23T10:24:01.615Z,4.32
2022-09-23T10:27:11.809Z,4.47
2022-09-23T10:30:23.405Z,4.85
2022-09-23T10:33:28.489Z,4.25
2022-09-23T10:36:33.175Z,3.95
2022-09-23T10:39:53.985Z,4.62
2022-09-23T10:43:24.656Z,4.75
2022-09-23T10:46:38.355Z,4.40
2022-09-23T10:49:58.655Z,3.75
2022-09-23T10:53:27.929Z,4.10
2022-09-23T10:56:41.145Z,3.67
2022-09-23T11:00:03.464Z,3.70
2022-09-23T11:03:32.217Z,3.67
2022-09-23T11:06:47.923Z,4.05
2022-09-23T11:10:29.168Z,3.80
2022-09-23T11:14:07.103Z,3.92
2022-09-23T11:17:34.606Z,4.15
2022-09-23T11:20:42.528Z,3.95
2022-09-23T11:23:45.014Z,3.72
2022-09-23T11:27:05.032Z,4.03
2022-09-23T11:30:10.512Z,4.12
2022-09-23T11:34:15.964Z,3.58
2022-09-23T11:37:23.998Z,3.47
2022-09-23T11:40:36.246Z,4.03
2022-09-23T11:43:41.048Z,3.83
2022-09-23T11:47:07.981Z,3.78
2022-09-23T11:50:34.431Z,4.22
2022-09-23T11:53:49.902Z,3.45
2022-09-23T11:56:57.301Z,3.17
2022-09-23T12:00:06.274Z,3.65
2022-09-23T12:03:28.847Z,3.50
2022-09-23T12:06:41.748Z,3.65
2022-09-23T12:10:03.430Z,3.45
2022-09-23T12:13:32.289Z,3.42
2022-09-23T12:17:02.765Z,3.17
2022-09-23T12:20:13.136Z,3.95
2022-09-23T12:23:45.954Z,3.20
2022-09-23T12:26:57.127Z,3.55
2022-09-23T12:30:04.025Z,3.92
2022-09-23T12:33:09.436Z,3.22
2022-09-23T12:36:14.940Z,3.20
2022-09-23T12:39:49.720Z,3.20
2022-09-23T12:42:52.274Z,2.37
2022-09-23T12:45:54.471Z,2.67
2022-09-23T12:49:02.321Z,2.25
2022-09-23T12:52:10.444Z,2.53
2022-09-23T12:58:42.181Z,2.33
2022-09-23T13:01:44.890Z,2.05
2022-09-23T13:05:16.114Z,2.60
2022-09-23T13:08:20.781Z,1.95
2022-09-23T13:11:27.928Z,2.60
2022-09-23T13:14:33.047Z,2.30
2022-09-23T13:17:39.911Z,2.55
2022-09-23T13:20:42.368Z,2.22
2022-09-23T13:24:28.877Z,2.25
2022-09-23T13:27:33.614Z,2.72
2022-09-23T13:30:36.120Z,2.20
2022-09-23T13:33:43.955Z,2.20
2022-09-23T13:36:47.843Z,2.10
2022-09-23T13:39:51.270Z,2.40
2022-09-23T13:42:57.934Z,2.20
2022-09-23T13:46:02.008Z,2.37
2022-09-23T13:49:04.492Z,2.55
2022-09-23T13:52:29.915Z,2.60
2022-09-23T13:55:37.334Z,1.95
2022-09-23T13:58:40.358Z,2.20
2022-09-23T14:01:42.441Z,2.40
2022-09-23T14:04:44.914Z,2.83
2022-09-23T14:07:48.704Z,2.60
2022-09-23T14:10:51.570Z,2.37
2022-09-23T14:13:54.955Z,2.22
2022-09-23T14:16:58.511Z,2.15
2022-09-23T14:20:01.047Z,2.62
2022-09-23T14:23:06.174Z,2.50
2022-09-23T14:26:08.340Z,2.62
2022-09-23T14:29:15.474Z,2.67
2022-09-23T14:32:24.749Z,1.75
2022-09-23T14:35:40.267Z,2.25
2022-09-23T14:38:51.369Z,2.30
2022-09-23T14:41:53.845Z,2.50
2022-09-23T14:44:56.077Z,2.30
2022-09-23T14:48:01.537Z,1.90
2022-09-23T14:51:09.216Z,2.30
2022-09-23T14:54:36.855Z,2.20
2022-09-23T14:57:39.811Z,2.08
2022-09-23T15:00:57.337Z,2.28
2022-09-23T15:04:11.580Z,1.70
2022-09-23T15:07:18.847Z,1.60
2022-09-23T15:10:27.618Z,1.62
2022-09-23T15:13:32.411Z,1.40
2022-09-23T15:16:34.620Z,1.30
2022-09-23T15:19:38.022Z,1.50
2022-09-23T15:22:48.848Z,1.80
2022-09-23T15:25:51.466Z,1.73
2022-09-23T15:28:58.290Z,1.20
2022-09-23T15:32:00.918Z,2.00
2022-09-23T15:35:03.213Z,2.00
2022-09-23T15:38:05.583Z,1.92
2022-09-23T15:41:07.869Z,2.67
2022-09-23T15:44:14.988Z,2.28
2022-09-23T15:47:18.626Z,2.33
2022-09-23T15:50:21.098Z,2.40
2022-09-23T15:53:27.764Z,2.08
2022-09-23T15:56:30.139Z,2.40
2022-09-23T15:59:32.756Z,2.25
2022-09-23T16:02:35.145Z,2.80
2022-09-23T16:05:39.295Z,2.80
2022-09-23T16:08:42.187Z,2.97
2022-09-23T16:11:47.159Z,2.60
2022-09-23T16:14:49.251Z,2.50
2022-09-23T16:17:51.662Z,2.62
2022-09-23T16:20:54.664Z,2.90
2022-09-23T16:23:57.957Z,2.95
2022-09-23T16:27:04.320Z,2.60
2022-09-23T16:30:07.547Z,3.28
2022-09-23T16:33:09.700Z,3.05
2022-09-23T16:36:35.820Z,2.70
2022-09-23T16:39:38.792Z,3.12
2022-09-23T16:42:41.147Z,4.10
2022-09-23T16:45:43.379Z,3.53
2022-09-23T16:48:52.112Z,3.70
2022-09-23T16:51:54.857Z,4.50
2022-09-23T16:54:57.374Z,4.40
2022-09-23T16:57:59.451Z,3.67
2022-09-23T17:01:20.753Z,3.80
2022-09-23T17:04:22.914Z,4.12
2022-09-23T17:07:26.119Z,3.65
2022-09-23T17:10:28.325Z,4.15
2022-09-23T17:13:31.021Z,3.87
2022-09-23T17:16:34.973Z,4.22
2022-09-23T17:19:38.085Z,4.20
2022-09-23T17:22:41.275Z,4.12
2022-09-23T17:25:48.172Z,3.75
2022-09-23T17:28:51.658Z,5.12
2022-09-23T17:31:54.363Z,4.97
2022-09-23T17:34:56.525Z,5.05
2022-09-23T17:37:58.883Z,4.70
2022-09-23T17:41:02.047Z,4.18
2022-09-23T17:44:04.764Z,5.05
2022-09-23T17:47:06.842Z,3.53
2022-09-23T17:50:09.293Z,4.18
2022-09-23T17:53:11.380Z,4.10
2022-09-23T17:56:19.424Z,4.05
2022-09-23T17:59:21.538Z,4.55
2022-09-23T18:02:23.919Z,4.50
2022-09-23T18:05:26.307Z,4.57
2022-09-23T18:08:30.431Z,5.72
2022-09-23T18:11:35.921Z,4.72
2022-09-23T18:14:38.009Z,5.97
2022-09-23T18:17:40.386Z,5.18
2022-09-23T18:20:42.450Z,5.47
2022-09-23T18:23:44.919Z,6.57
2022-09-23T18:26:47.679Z,9.20
2022-09-23T18:29:50.071Z,10.73
2022-09-23T18:32:52.466Z,9.55
2022-09-23T18:35:54.895Z,10.43
2022-09-23T18:38:56.993Z,10.63
2022-09-23T18:42:00.107Z,11.07
2022-09-23T18:45:02.198Z,10.32
2022-09-23T18:48:23.167Z,10.43
2022-09-23T18:51:28.393Z,10.13
2022-09-23T18:54:31.413Z,10.40
2022-09-23T18:57:33.492Z,10.07
2022-09-23T19:00:36.076Z,10.30
2022-09-23T19:03:38.756Z,9.98
2022-09-23T19:06:41.382Z,10.50
2022-09-23T19:09:43.480Z,10.95
2022-09-23T19:12:46.628Z,10.77
2022-09-23T19:15:48.761Z,11.55
2022-09-23T19:18:52.177Z,10.50
2022-09-23T19:21:54.716Z,10.93
2022-09-23T19:24:57.059Z,9.77
2022-09-23T19:27:59.154Z,10.85
2022-09-23T19:31:16.910Z,12.98
2022-09-23T19:34:23.838Z,10.32
2022-09-23T19:37:26.256Z,11.15
2022-09-23T19:40:31.346Z,9.73
2022-09-23T19:43:40.076Z,11.52
2022-09-23T19:46:45.251Z,10.45
2022-09-23T19:49:48.525Z,9.77
2022-09-23T19:52:51.737Z,11.05
2022-09-23T19:55:56.166Z,10.02
2022-09-23T19:58:59.469Z,10.05
2022-09-23T20:02:01.933Z,9.90
2022-09-23T20:05:04.577Z,9.60
2022-09-23T20:08:06.676Z,9.60
2022-09-23T20:11:12.437Z,9.35
2022-09-23T20:14:14.940Z,8.90
2022-09-23T20:17:19.108Z,10.30
2022-09-23T20:20:21.204Z,10.10
2022-09-23T20:23:23.527Z,9.00
2022-09-23T20:26:44.326Z,9.02
2022-09-23T20:29:46.679Z,8.52
2022-09-23T20:32:49.102Z,9.00
2022-09-23T20:35:53.183Z,8.30
2022-09-23T20:39:01.762Z,8.52
2022-09-23T20:45:07.089Z,7.40
2022-09-23T20:48:11.282Z,7.72
2022-09-23T20:51:13.391Z,7.30
2022-09-23T20:54:18.924Z,6.90
2022-09-23T20:57:21.072Z,7.68
2022-09-23T21:00:23.416Z,6.78
2022-09-23T21:03:26.547Z,7.30
2022-09-23T21:06:29.392Z,7.45
2022-09-23T21:09:31.479Z,7.80
2022-09-23T21:12:35.124Z,7.30
2022-09-23T21:15:37.920Z,7.30
2022-09-23T21:18:40.268Z,7.18
2022-09-23T21:21:43.177Z,6.70
2022-09-23T21:25:31.552Z,6.20
2022-09-23T21:28:11.357Z,6.57
2022-09-23T21:31:25.387Z,5.82
2022-09-23T21:34:29.979Z,5.37
2022-09-23T21:37:32.323Z,5.93
2022-09-23T21:40:53.039Z,6.05
2022-09-23T21:43:56.285Z,5.82
2022-09-23T21:46:59.273Z,5.82
2022-09-23T21:50:02.838Z,6.15
2022-09-23T21:53:07.115Z,6.72
2022-09-23T21:56:11.871Z,7.12
2022-09-23T21:59:13.968Z,6.47
2022-09-23T22:02:17.244Z,7.32
2022-09-23T22:05:19.598Z,7.28
2022-09-23T22:08:21.694Z,7.25
2022-09-23T22:11:43.208Z,7.60
2022-09-23T22:14:47.139Z,6.62
2022-09-23T22:17:49.974Z,7.87
2022-09-23T22:20:52.048Z,7.78
2022-09-23T22:24:01.110Z,7.32
2022-09-23T22:27:03.379Z,7.85
2022-09-23T22:30:25.012Z,7.12
2022-09-23T22:33:27.076Z,7.43
2022-09-23T22:36:29.439Z,6.15
2022-09-23T22:39:31.515Z,5.97
2022-09-23T22:42:34.596Z,5.50
2022-09-23T22:45:37.610Z,5.70
2022-09-23T22:48:39.955Z,4.93
2022-09-23T22:51:42.705Z,5.12
2022-09-23T22:54:45.036Z,5.25
2022-09-23T22:57:50.447Z,5.28
2022-09-23T23:00:56.806Z,5.25
2022-09-23T23:04:02.276Z,5.12
2022-09-23T23:07:06.878Z,5.10
2022-09-23T23:10:10.280Z,4.72
2022-09-23T23:13:12.844Z,4.65
2022-09-23T23:16:14.964Z,5.22
2022-09-23T23:19:19.098Z,5.25
2022-09-23T23:22:21.234Z,4.90
2022-09-23T23:25:23.621Z,4.78
2022-09-23T23:28:28.019Z,4.70
2022-09-23T23:31:32.125Z,4.62
2022-09-23T23:34:34.415Z,4.72
2022-09-23T23:37:36.764Z,4.40
2022-09-23T23:40:38.883Z,4.43
2022-09-23T23:43:43.232Z,5.22
2022-09-23T23:46:45.317Z,4.35
2022-09-23T23:49:47.708Z,3.95
2022-09-23T23:52:49.788Z,4.50
2022-09-23T23:55:52.484Z,4.60
2022-09-23T23:58:56.488Z,4.62
